Time;durP1;ratioP1;P1;durP2;ratioP2;P2;SDS_P1;SDS_P2;PMS_P1;PMS_P2;Temp;Humidity;BMP_temperature;BMP_pressure;BME280_temperature;BME280_humidity;BME280_pressure;Samples;Min_cycle;Max_cycle;Signal;HPM_P1;HPM_P2
2023/09/27 00:00:31;;;;;;;0.00;0.00;;;;;;;14.41;100.00;100572.34;4889079;29;20029;-76
2023/09/27 00:03:02;;;;;;;0.00;0.00;;;;;;;14.46;100.00;100570.38;4867562;29;20040;-76
2023/09/27 00:05:28;;;;;;;0.00;0.00;;;;;;;14.40;100.00;100559.72;4889446;29;20035;-76
2023/09/27 00:07:53;;;;;;;0.00;0.00;;;;;;;14.41;100.00;100570.44;4853212;29;20033;-79
2023/09/27 00:10:19;;;;;;;0.00;0.00;;;;;;;14.44;100.00;100582.78;4843753;29;20384;-78
2023/09/27 00:12:48;;;;;;;0.00;0.00;;;;;;;14.41;100.00;100578.69;4869959;29;20040;-78
2023/09/27 00:15:14;;;;;;;0.00;0.00;;;;;;;14.38;100.00;100578.44;4880692;29;20265;-74
2023/09/27 00:17:41;;;;;;;0.00;0.00;;;;;;;14.33;100.00;100576.53;4879090;29;20127;-75
2023/09/27 00:20:13;;;;;;;0.00;0.00;;;;;;;14.31;100.00;100578.78;4886318;29;20032;-76
2023/09/27 00:22:39;;;;;;;0.00;0.00;;;;;;;14.30;100.00;100577.13;4888350;29;20028;-76
2023/09/27 00:25:07;;;;;;;0.00;0.00;;;;;;;14.31;100.00;100585.09;4867114;29;20120;-77
2023/09/27 00:27:33;;;;;;;0.00;0.00;;;;;;;14.33;100.00;100584.81;4887092;29;20092;-76
2023/09/27 00:29:58;;;;;;;0.00;0.00;;;;;;;14.35;100.00;100596.31;4862791;29;20028;-76
2023/09/27 00:32:24;;;;;;;0.00;0.00;;;;;;;14.37;100.00;100599.63;4880637;29;20025;-76
2023/09/27 00:34:49;;;;;;;0.00;0.00;;;;;;;14.33;100.00;100604.06;4850346;29;20043;-77
2023/09/27 00:37:14;;;;;;;0.00;0.00;;;;;;;14.29;100.00;100608.47;4880673;29;20487;-74
2023/09/27 00:39:40;;;;;;;0.00;0.00;;;;;;;14.29;100.00;100609.31;4860269;29;20065;-76
2023/09/27 00:42:05;;;;;;;0.00;0.00;;;;;;;14.24;100.00;100600.28;4848955;29;20467;-75
2023/09/27 00:44:31;;;;;;;0.00;0.00;;;;;;;14.23;100.00;100598.63;4882122;29;20028;-75
2023/09/27 00:46:57;;;;;;;0.00;0.00;;;;;;;14.19;100.00;100603.88;4839076;29;20085;-75
2023/09/27 00:49:23;;;;;;;0.00;0.00;;;;;;;14.21;100.00;100601.66;4861711;29;20024;-76
2023/09/27 00:51:49;;;;;;;0.00;0.00;;;;;;;14.23;100.00;100604.13;4870599;29;20039;-76
2023/09/27 00:54:15;;;;;;;0.00;0.00;;;;;;;14.25;100.00;100604.66;4862339;29;20420;-75
2023/09/27 00:56:41;;;;;;;0.00;0.00;;;;;;;14.19;100.00;100600.31;4881333;29;20172;-75
2023/09/27 00:59:07;;;;;;;0.00;0.00;;;;;;;14.11;100.00;100579.75;4868323;29;20032;-76
2023/09/27 01:01:33;;;;;;;0.00;0.00;;;;;;;14.12;100.00;100573.94;4885768;29;20028;-74
2023/09/27 01:03:59;;;;;;;0.00;0.00;;;;;;;14.12;100.00;100575.91;4870941;29;20415;-75
2023/09/27 01:06:25;;;;;;;0.00;0.00;;;;;;;14.08;100.00;100569.31;4839251;29;20024;-74
2023/09/27 01:08:50;;;;;;;0.00;0.00;;;;;;;14.17;100.00;100575.84;4856062;29;20032;-74
2023/09/27 01:11:17;;;;;;;0.00;0.00;;;;;;;14.22;100.00;100558.47;4857642;29;20035;-75
2023/09/27 01:13:42;;;;;;;0.00;0.00;;;;;;;14.25;100.00;100558.72;4865384;29;20057;-75
2023/09/27 01:16:08;;;;;;;0.00;0.00;;;;;;;14.23;100.00;100546.38;4888085;29;20036;-75
2023/09/27 01:18:33;;;;;;;0.00;0.00;;;;;;;14.24;100.00;100553.53;4870317;29;20036;-77
2023/09/27 01:21:00;;;;;;;0.00;0.00;;;;;;;14.24;100.00;100573.59;4856940;29;20033;-77
2023/09/27 01:23:25;;;;;;;0.00;0.00;;;;;;;14.22;100.00;100585.97;4860884;29;20029;-77
2023/09/27 01:25:57;;;;;;;0.00;0.00;;;;;;;14.17;100.00;100575.03;4841102;29;20043;-77
2023/09/27 01:28:22;;;;;;;0.00;0.00;;;;;;;14.21;100.00;100578.84;4865148;29;20116;-75
2023/09/27 01:30:48;;;;;;;0.00;0.00;;;;;;;14.24;100.00;100578.28;4862016;29;20117;-76
2023/09/27 01:33:13;;;;;;;0.00;0.00;;;;;;;14.25;100.00;100568.91;4869532;29;20037;-75
2023/09/27 01:35:40;;;;;;;0.00;0.00;;;;;;;14.31;100.00;100556.78;4869409;29;20044;-76
2023/09/27 01:38:10;;;;;;;0.00;0.00;;;;;;;14.26;100.00;100543.84;4888426;29;20029;-75
2023/09/27 01:40:44;;;;;;;0.00;0.00;;;;;;;14.25;100.00;100546.91;4870957;29;20044;-75
2023/09/27 01:43:10;;;;;;;0.00;0.00;;;;;;;14.23;100.00;100565.63;4866020;29;20443;-76
2023/09/27 01:45:36;;;;;;;0.00;0.00;;;;;;;14.16;100.00;100560.44;4871900;29;20032;-76
2023/09/27 01:48:02;;;;;;;0.00;0.00;;;;;;;14.19;100.00;100553.56;4890274;29;20035;-76
2023/09/27 01:50:34;;;;;;;0.00;0.00;;;;;;;14.20;100.00;100550.50;4855700;29;20044;-76
2023/09/27 01:52:59;;;;;;;0.00;0.00;;;;;;;14.27;100.00;100552.94;4887075;29;20052;-76
2023/09/27 01:55:26;;;;;;;0.00;0.00;;;;;;;14.25;100.00;100542.22;4881905;29;20140;-75
2023/09/27 01:57:52;;;;;;;0.00;0.00;;;;;;;14.30;100.00;100528.41;4874762;29;20111;-75
2023/09/27 02:00:20;;;;;;;0.00;0.00;;;;;;;14.46;100.00;100542.06;4889388;29;20033;-76
2023/09/27 02:02:48;;;;;;;0.00;0.00;;;;;;;14.45;100.00;100543.97;4887839;29;20025;-76
2023/09/27 02:05:14;;;;;;;0.00;0.00;;;;;;;14.46;100.00;100548.38;4886413;29;20409;-76
2023/09/27 02:07:40;;;;;;;0.00;0.00;;;;;;;14.49;100.00;100531.28;4872133;29;20112;-75
2023/09/27 02:10:07;;;;;;;0.00;0.00;;;;;;;14.50;100.00;100526.63;4888512;29;21612;-76
2023/09/27 02:12:32;;;;;;;0.00;0.00;;;;;;;14.55;100.00;100518.28;4872515;29;20124;-76
2023/09/27 02:14:58;;;;;;;0.00;0.00;;;;;;;14.57;100.00;100496.81;4884997;29;20025;-76
2023/09/27 02:17:23;;;;;;;0.00;0.00;;;;;;;14.57;100.00;100487.72;4890747;29;20063;-76
2023/09/27 02:19:51;;;;;;;0.00;0.00;;;;;;;14.51;100.00;100478.72;4890270;29;20528;-76
2023/09/27 02:22:18;;;;;;;0.00;0.00;;;;;;;14.57;100.00;100504.25;4858880;29;20034;-74
2023/09/27 02:24:44;;;;;;;0.00;0.00;;;;;;;14.48;100.00;100499.38;4884960;29;20404;-76
2023/09/27 02:27:10;;;;;;;0.00;0.00;;;;;;;14.48;100.00;100507.66;4883667;29;20027;-76
2023/09/27 02:29:37;;;;;;;0.00;0.00;;;;;;;14.45;100.00;100532.16;4868343;29;20383;-76
2023/09/27 02:32:05;;;;;;;0.00;0.00;;;;;;;14.33;100.00;100538.03;4855881;29;20080;-76
2023/09/27 02:34:31;;;;;;;0.00;0.00;;;;;;;14.33;100.00;100543.53;4873435;29;20476;-75
2023/09/27 02:36:56;;;;;;;0.00;0.00;;;;;;;14.35;100.00;100526.75;4870637;29;20105;-75
2023/09/27 02:39:22;;;;;;;0.00;0.00;;;;;;;14.33;100.00;100521.53;4854551;29;20128;-76
2023/09/27 02:41:47;;;;;;;0.00;0.00;;;;;;;14.31;100.00;100534.75;4887031;29;20468;-75
2023/09/27 02:44:12;;;;;;;0.00;0.00;;;;;;;14.31;100.00;100512.75;4889805;29;20139;-76
2023/09/27 02:46:40;;;;;;;0.00;0.00;;;;;;;14.24;100.00;100517.78;4866253;29;20022;-76
2023/09/27 02:49:05;;;;;;;0.00;0.00;;;;;;;14.20;100.00;100530.44;4892872;29;20029;-76
2023/09/27 02:51:32;;;;;;;0.00;0.00;;;;;;;14.09;100.00;100516.78;4856579;29;20165;-76
2023/09/27 02:53:57;;;;;;;0.00;0.00;;;;;;;14.01;100.00;100514.63;4872725;29;20055;-75
2023/09/27 02:56:23;;;;;;;0.00;0.00;;;;;;;13.99;100.00;100522.38;4876529;29;20024;-75
2023/09/27 02:58:48;;;;;;;0.00;0.00;;;;;;;14.00;100.00;100507.50;4873031;29;20021;-76
2023/09/27 03:01:13;;;;;;;0.00;0.00;;;;;;;14.03;100.00;100520.69;4871502;29;20452;-77
2023/09/27 03:03:39;;;;;;;0.00;0.00;;;;;;;14.03;100.00;100523.44;4881420;29;20864;-75
2023/09/27 03:06:12;;;;;;;0.00;0.00;;;;;;;14.03;100.00;100512.44;4868840;29;20040;-75
2023/09/27 03:08:39;;;;;;;0.00;0.00;;;;;;;14.05;100.00;100510.22;4880289;29;20422;-75
2023/09/27 03:11:05;;;;;;;0.00;0.00;;;;;;;14.05;100.00;100512.97;4870139;29;20028;-75
2023/09/27 03:13:31;;;;;;;0.00;0.00;;;;;;;14.03;100.00;100495.94;4887515;29;20040;-75
2023/09/27 03:15:58;;;;;;;0.00;0.00;;;;;;;14.04;100.00;100503.06;4874839;29;20031;-76
2023/09/27 03:18:24;;;;;;;0.00;0.00;;;;;;;14.00;100.00;100491.00;4891618;29;20077;-76
2023/09/27 03:20:51;;;;;;;0.00;0.00;;;;;;;13.98;100.00;100493.22;4872358;29;20033;-76
2023/09/27 03:23:17;;;;;;;0.00;0.00;;;;;;;14.07;100.00;100486.00;4864182;29;20037;-77
2023/09/27 03:25:43;;;;;;;0.00;0.00;;;;;;;14.12;100.00;100494.22;4868348;29;20495;-75
2023/09/27 03:28:08;;;;;;;0.00;0.00;;;;;;;14.14;100.00;100491.97;4887217;29;20036;-76
2023/09/27 03:30:34;;;;;;;0.00;0.00;;;;;;;14.16;100.00;100488.94;4873010;29;20443;-76
2023/09/27 03:32:59;;;;;;;0.00;0.00;;;;;;;14.18;100.00;100485.91;4852225;29;20035;-76
2023/09/27 03:35:25;;;;;;;0.00;0.00;;;;;;;14.17;100.00;100478.78;4887541;29;20017;-76
2023/09/27 03:37:50;;;;;;;0.00;0.00;;;;;;;14.20;100.00;100475.44;4855392;29;20024;-75
2023/09/27 03:40:16;;;;;;;0.00;0.00;;;;;;;14.11;100.00;100462.31;4859786;29;20163;-75
2023/09/27 03:42:43;;;;;;;0.00;0.00;;;;;;;14.14;100.00;100469.97;4890346;29;20107;-76
2023/09/27 03:45:09;;;;;;;0.00;0.00;;;;;;;14.10;100.00;100463.41;4886631;29;20029;-76
2023/09/27 03:47:37;;;;;;;0.00;0.00;;;;;;;14.10;100.00;100452.41;4872179;29;20035;-76
2023/09/27 03:50:03;;;;;;;0.00;0.00;;;;;;;14.12;100.00;100452.97;4886068;29;20384;-76
2023/09/27 03:52:29;;;;;;;0.00;0.00;;;;;;;14.16;100.00;100452.38;4870468;29;20032;-75
2023/09/27 03:54:55;;;;;;;0.00;0.00;;;;;;;14.19;100.00;100460.03;4889352;29;20498;-75
2023/09/27 03:57:20;;;;;;;0.00;0.00;;;;;;;14.17;100.00;100445.78;4887687;29;20036;-75
2023/09/27 03:59:46;;;;;;;0.00;0.00;;;;;;;14.22;100.00;100459.47;4867477;29;20077;-76
2023/09/27 04:02:11;;;;;;;0.00;0.00;;;;;;;14.22;100.00;100459.47;4884807;29;20029;-77
2023/09/27 04:04:36;;;;;;;0.00;0.00;;;;;;;14.26;100.00;100466.03;4870967;29;20040;-76
2023/09/27 04:07:02;;;;;;;0.00;0.00;;;;;;;14.33;100.00;100466.50;4886610;29;20035;-76
2023/09/27 04:09:27;;;;;;;0.00;0.00;;;;;;;14.34;100.00;100456.31;4889079;29;20606;-76
2023/09/27 04:11:53;;;;;;;0.00;0.00;;;;;;;14.35;100.00;100447.78;4874997;29;20032;-77
2023/09/27 04:14:18;;;;;;;0.00;0.00;;;;;;;14.41;100.00;100445.78;4869073;29;20115;-77
2023/09/27 04:16:43;;;;;;;0.00;0.00;;;;;;;14.45;100.00;100450.41;4882962;29;20029;-76
2023/09/27 04:19:09;;;;;;;0.00;0.00;;;;;;;14.51;100.00;100450.38;4870773;29;20032;-76
2023/09/27 04:21:34;;;;;;;0.00;0.00;;;;;;;14.52;100.00;100446.53;4889086;29;20025;-76
2023/09/27 04:24:00;;;;;;;0.00;0.00;;;;;;;14.52;100.00;100443.78;4872734;29;20064;-77
2023/09/27 04:26:26;;;;;;;0.00;0.00;;;;;;;14.48;100.00;100433.34;4853928;29;20705;-76
2023/09/27 04:28:53;;;;;;;0.00;0.00;;;;;;;14.49;100.00;100450.69;4889848;29;20036;-77
2023/09/27 04:31:21;;;;;;;0.00;0.00;;;;;;;14.44;100.00;100456.22;4887977;29;20036;-77
2023/09/27 04:33:47;;;;;;;0.00;0.00;;;;;;;14.42;100.00;100447.44;4872853;29;20464;-76
2023/09/27 04:36:17;;;;;;;0.00;0.00;;;;;;;14.42;100.00;100442.75;4871505;29;20033;-76
2023/09/27 04:38:46;;;;;;;0.00;0.00;;;;;;;14.39;100.00;100437.84;4876803;29;20055;-78
2023/09/27 04:41:14;;;;;;;0.00;0.00;;;;;;;14.45;100.00;100413.84;4892043;29;20523;-75
2023/09/27 04:43:41;;;;;;;0.00;0.00;;;;;;;14.51;100.00;100411.84;4884584;29;20428;-75
2023/09/27 04:46:07;;;;;;;0.00;0.00;;;;;;;14.53;100.00;100404.97;4873504;29;20028;-76
2023/09/27 04:48:32;;;;;;;0.00;0.00;;;;;;;14.61;100.00;100409.81;4887676;29;20538;-76
2023/09/27 04:50:59;;;;;;;0.00;0.00;;;;;;;14.64;100.00;100372.66;4869124;29;20044;-75
2023/09/27 04:53:27;;;;;;;0.00;0.00;;;;;;;14.75;100.00;100354.91;4882558;29;20379;-76
2023/09/27 04:55:53;;;;;;;0.00;0.00;;;;;;;14.82;100.00;100325.06;4884295;29;20800;-76
2023/09/27 04:58:21;;;;;;;0.00;0.00;;;;;;;14.86;100.00;100324.47;4854320;29;20373;-74
2023/09/27 05:00:47;;;;;;;0.00;0.00;;;;;;;14.90;100.00;100325.53;4861772;29;20037;-75
2023/09/27 05:03:12;;;;;;;0.00;0.00;;;;;;;14.92;100.00;100298.50;4888838;29;20035;-76
2023/09/27 05:05:38;;;;;;;0.00;0.00;;;;;;;14.91;100.00;100343.66;4882525;29;20040;-76
2023/09/27 05:08:04;;;;;;;0.00;0.00;;;;;;;14.81;100.00;100359.22;4893102;29;20028;-75
2023/09/27 05:10:29;;;;;;;0.00;0.00;;;;;;;14.69;100.00;100338.72;4889564;29;20039;-76
2023/09/27 05:12:55;;;;;;;0.00;0.00;;;;;;;14.59;100.00;100364.44;4891571;29;20479;-75
2023/09/27 05:15:20;;;;;;;0.00;0.00;;;;;;;14.56;100.00;100363.09;4884806;29;20033;-76
2023/09/27 05:17:46;;;;;;;0.00;0.00;;;;;;;14.66;100.00;100365.75;4891000;29;20047;-75
2023/09/27 05:20:12;;;;;;;0.00;0.00;;;;;;;14.72;100.00;100361.00;4872696;29;20032;-74
2023/09/27 05:22:38;;;;;;;0.00;0.00;;;;;;;14.75;100.00;100338.38;4870412;29;20502;-76
2023/09/27 05:25:06;;;;;;;0.00;0.00;;;;;;;14.81;100.00;100350.94;4895316;29;20029;-75
2023/09/27 05:27:31;;;;;;;0.00;0.00;;;;;;;14.82;100.00;100347.09;4870340;29;20498;-74
2023/09/27 05:29:57;;;;;;;0.00;0.00;;;;;;;14.76;100.00;100352.94;4882444;29;20068;-75
2023/09/27 05:32:23;;;;;;;0.00;0.00;;;;;;;14.77;100.00;100371.13;4891687;29;20021;-75
2023/09/27 05:34:50;;;;;;;0.00;0.00;;;;;;;14.75;100.00;100382.44;4872922;29;20131;-76
2023/09/27 05:37:23;;;;;;;0.00;0.00;;;;;;;14.77;100.00;100398.66;4874129;29;20033;-76
2023/09/27 05:39:48;;;;;;;0.00;0.00;;;;;;;14.65;100.00;100396.31;4885668;29;20160;-77
2023/09/27 05:42:14;;;;;;;0.00;0.00;;;;;;;14.59;100.00;100391.97;4855420;29;20124;-76
2023/09/27 05:44:41;;;;;;;0.00;0.00;;;;;;;14.50;100.00;100383.53;4883127;29;20037;-75
2023/09/27 05:47:07;;;;;;;0.00;0.00;;;;;;;14.58;100.00;100379.31;4887083;29;20029;-76
2023/09/27 05:49:34;;;;;;;0.00;0.00;;;;;;;14.58;100.00;100390.31;4875336;29;20539;-77
2023/09/27 05:51:59;;;;;;;0.00;0.00;;;;;;;14.57;100.00;100383.16;4886235;29;20088;-77
2023/09/27 05:54:29;;;;;;;0.00;0.00;;;;;;;14.56;100.00;100371.34;4883007;29;20025;-77
2023/09/27 05:57:03;;;;;;;0.00;0.00;;;;;;;14.51;100.00;100340.31;4886554;29;20020;-78
2023/09/27 06:02:20;;;;;;;0.00;0.00;;;;;;;14.64;100.00;100326.69;4874016;29;20040;-76
2023/09/27 06:04:46;;;;;;;0.00;0.00;;;;;;;14.64;100.00;100301.09;4891503;29;20143;-76
2023/09/27 06:07:27;;;;;;;0.00;0.00;;;;;;;14.82;100.00;100330.56;4886541;29;20091;-76
2023/09/27 06:09:59;;;;;;;0.00;0.00;;;;;;;14.78;100.00;100324.03;4891421;29;20047;-75
2023/09/27 06:12:25;;;;;;;0.00;0.00;;;;;;;14.95;100.00;100350.22;4869383;29;20060;-75
2023/09/27 06:14:53;;;;;;;0.00;0.00;;;;;;;14.87;100.00;100331.63;4888730;29;20067;-74
2023/09/27 06:17:19;;;;;;;0.00;0.00;;;;;;;14.96;100.00;100333.41;4889991;29;20032;-74
2023/09/27 06:19:44;;;;;;;0.00;0.00;;;;;;;15.00;100.00;100347.41;4887446;29;20036;-74
2023/09/27 06:22:13;;;;;;;0.00;0.00;;;;;;;15.02;100.00;100350.66;4890748;29;20040;-73
2023/09/27 06:24:41;;;;;;;0.00;0.00;;;;;;;14.96;100.00;100335.34;4884014;29;20025;-74
2023/09/27 06:27:06;;;;;;;0.00;0.00;;;;;;;15.01;100.00;100338.03;4886596;29;20032;-75
2023/09/27 06:29:33;;;;;;;0.00;0.00;;;;;;;15.09;100.00;100331.03;4886314;29;20040;-74
2023/09/27 06:31:58;;;;;;;0.00;0.00;;;;;;;15.15;100.00;100338.91;4888129;29;20035;-75
2023/09/27 06:34:24;;;;;;;0.00;0.00;;;;;;;15.17;100.00;100328.41;4890543;29;20028;-74
2023/09/27 06:36:51;;;;;;;0.00;0.00;;;;;;;15.20;100.00;100327.00;4886460;29;20080;-76
2023/09/27 06:39:23;;;;;;;0.00;0.00;;;;;;;15.17;100.00;100314.63;4887137;29;20063;-74
2023/09/27 06:41:49;;;;;;;0.00;0.00;;;;;;;15.15;100.00;100300.34;4861645;29;20056;-76
2023/09/27 06:44:15;;;;;;;0.00;0.00;;;;;;;15.27;100.00;100318.34;4871788;29;20431;-75
2023/09/27 06:46:41;;;;;;;0.00;0.00;;;;;;;15.33;100.00;100315.22;4887369;29;20100;-74
2023/09/27 06:49:08;;;;;;;0.00;0.00;;;;;;;15.35;100.00;100284.59;4887836;29;20024;-75
2023/09/27 06:51:34;;;;;;;0.00;0.00;;;;;;;15.46;100.00;100294.34;4858249;29;20067;-76
2023/09/27 06:54:02;;;;;;;0.00;0.00;;;;;;;15.49;100.00;100298.41;4886348;29;20073;-73
2023/09/27 06:56:28;;;;;;;0.00;0.00;;;;;;;15.52;100.00;100301.41;4890234;29;20036;-76
2023/09/27 06:58:56;;;;;;;0.00;0.00;;;;;;;15.44;100.00;100279.22;4885721;29;20036;-77
2023/09/27 07:01:24;;;;;;;0.00;0.00;;;;;;;15.47;100.00;100284.94;4890023;29;20051;-76
2023/09/27 07:03:50;;;;;;;0.00;0.00;;;;;;;15.52;100.00;100289.53;4857325;29;20155;-77
2023/09/27 07:06:25;;;;;;;0.00;0.00;;;;;;;15.51;100.00;100285.97;4856648;29;20119;-77
2023/09/27 07:08:58;;;;;;;0.00;0.00;;;;;;;15.59;100.00;100287.19;4870244;29;20069;-78
2023/09/27 07:11:26;;;;;;;0.00;0.00;;;;;;;15.64;100.00;100273.34;4874860;29;20032;-78
2023/09/27 07:13:51;;;;;;;0.00;0.00;;;;;;;15.62;100.00;100263.75;4871461;29;20403;-76
2023/09/27 07:16:25;;;;;;;0.00;0.00;;;;;;;15.76;100.00;100261.81;4872465;29;20028;-76
2023/09/27 07:18:51;;;;;;;0.00;0.00;;;;;;;16.19;100.00;100319.50;4889693;29;20415;-78
2023/09/27 07:21:19;;;;;;;0.00;0.00;;;;;;;16.32;100.00;100319.78;4874201;29;20044;-77
2023/09/27 07:23:49;;;;;;;0.00;0.00;;;;;;;16.29;100.00;100314.88;4872931;29;20040;-77
2023/09/27 07:26:15;;;;;;;0.00;0.00;;;;;;;16.31;100.00;100329.19;4865138;29;20033;-76
2023/09/27 07:28:44;;;;;;;0.00;0.00;;;;;;;16.20;100.00;100318.34;4891439;29;20456;-78
2023/09/27 07:31:13;;;;;;;0.00;0.00;;;;;;;16.37;100.00;100339.00;4887612;29;20132;-78
2023/09/27 07:33:38;;;;;;;0.00;0.00;;;;;;;16.51;100.00;100348.06;4871588;29;20044;-76
2023/09/27 07:36:08;;;;;;;0.00;0.00;;;;;;;16.61;100.00;100337.97;4859043;29;21342;-78
2023/09/27 07:38:37;;;;;;;0.00;0.00;;;;;;;16.95;100.00;100320.13;4851524;29;20476;-76
2023/09/27 07:41:03;;;;;;;0.00;0.00;;;;;;;17.38;100.00;100328.75;4874692;29;20056;-77
2023/09/27 07:43:29;;;;;;;0.00;0.00;;;;;;;17.73;100.00;100339.22;4867374;29;20037;-76
2023/09/27 07:45:55;;;;;;;0.00;0.00;;;;;;;18.09;99.33;100330.00;4874324;29;20032;-76
2023/09/27 07:48:22;;;;;;;0.00;0.00;;;;;;;18.14;97.80;100327.91;4846723;29;20056;-78
2023/09/27 07:50:48;;;;;;;0.00;0.00;;;;;;;18.17;97.07;100325.66;4853526;29;20036;-77
2023/09/27 07:53:13;;;;;;;0.00;0.00;;;;;;;18.05;97.29;100312.41;4882444;29;20029;-77
2023/09/27 07:55:46;;;;;;;0.00;0.00;;;;;;;18.09;97.37;100310.63;4880413;29;21208;-77
2023/09/27 07:58:13;;;;;;;0.00;0.00;;;;;;;18.41;96.78;100301.16;4874367;29;20842;-77
2023/09/27 08:00:50;;;;;;;0.00;0.00;;;;;;;18.69;94.17;100305.56;4849939;29;20024;-78
2023/09/27 08:03:19;;;;;;;0.00;0.00;;;;;;;19.87;91.54;100326.72;4858451;29;20380;-77
2023/09/27 08:05:45;;;;;;;0.00;0.00;;;;;;;20.99;85.47;100312.56;4842877;29;20067;-78
2023/09/27 08:08:16;;;;;;;0.00;0.00;;;;;;;21.41;80.08;100295.84;4872582;29;20432;-76
2023/09/27 08:10:52;;;;;;;0.00;0.00;;;;;;;21.02;78.33;100314.69;4887498;29;20044;-77
2023/09/27 08:13:18;;;;;;;0.00;0.00;;;;;;;20.60;81.26;100306.28;4871829;29;20048;-77
2023/09/27 08:15:49;;;;;;;0.00;0.00;;;;;;;20.35;82.15;100306.09;4856508;29;20032;-78
2023/09/27 08:18:15;;;;;;;0.00;0.00;;;;;;;20.12;83.43;100299.22;4885448;29;20047;-77
2023/09/27 08:20:43;;;;;;;0.00;0.00;;;;;;;19.97;83.56;100284.72;4889712;29;20092;-77
2023/09/27 08:23:09;;;;;;;0.00;0.00;;;;;;;20.01;84.11;100288.47;4871249;29;20444;-77
2023/09/27 08:25:36;;;;;;;0.00;0.00;;;;;;;20.78;84.67;100279.25;4856574;29;20044;-78
2023/09/27 08:28:03;;;;;;;0.00;0.00;;;;;;;22.00;78.97;100266.06;4857557;29;20028;-78
2023/09/27 08:30:31;;;;;;;0.00;0.00;;;;;;;22.22;75.42;100284.28;4867482;29;20025;-77
2023/09/27 08:32:57;;;;;;;0.00;0.00;;;;;;;22.08;73.59;100272.69;4872103;29;20047;-78
2023/09/27 08:35:22;;;;;;;0.00;0.00;;;;;;;21.74;75.39;100275.56;4873049;29;20108;-78
2023/09/27 08:37:51;;;;;;;0.00;0.00;;;;;;;21.80;74.85;100262.25;4876675;29;20088;-77
2023/09/27 08:40:19;;;;;;;0.00;0.00;;;;;;;22.03;74.64;100262.56;4867731;29;20769;-77
2023/09/27 08:42:50;;;;;;;0.00;0.00;;;;;;;21.83;73.63;100238.44;4872765;29;20032;-77
2023/09/27 08:45:19;;;;;;;0.00;0.00;;;;;;;21.86;73.57;100257.25;4867124;29;20035;-78
2023/09/27 08:47:45;;;;;;;0.00;0.00;;;;;;;21.81;74.25;100246.34;4872495;29;20524;-77
2023/09/27 08:50:13;;;;;;;0.00;0.00;;;;;;;22.16;74.28;100235.56;4872638;29;20124;-77
2023/09/27 08:52:43;;;;;;;0.00;0.00;;;;;;;22.48;71.31;100246.91;4888440;29;20028;-77
2023/09/27 08:55:12;;;;;;;0.00;0.00;;;;;;;22.19;72.24;100223.72;4866024;29;20061;-78
2023/09/27 08:57:44;;;;;;;0.00;0.00;;;;;;;22.03;72.12;100248.66;4841011;29;20033;-77
2023/09/27 09:00:13;;;;;;;0.00;0.00;;;;;;;21.53;73.77;100236.69;4888330;29;20035;-77
2023/09/27 09:02:42;;;;;;;0.00;0.00;;;;;;;21.20;75.15;100245.00;4861806;29;20035;-78
2023/09/27 09:05:11;;;;;;;0.00;0.00;;;;;;;20.79;77.17;100216.94;4873255;29;20122;-77
2023/09/27 09:07:41;;;;;;;0.00;0.00;;;;;;;20.56;78.16;100219.25;4868657;29;20112;-75
2023/09/27 09:10:16;;;;;;;0.00;0.00;;;;;;;20.37;79.02;100219.69;4879572;29;20028;-78
2023/09/27 09:12:45;;;;;;;0.00;0.00;;;;;;;20.25;80.14;100228.75;4884170;29;20033;-77
2023/09/27 09:15:41;;;;;;;0.00;0.00;;;;;;;20.11;81.31;100230.97;4872098;29;20057;-76
2023/09/27 09:18:28;;;;;;;0.00;0.00;;;;;;;19.96;81.47;100221.25;4871449;29;20020;-77
2023/09/27 09:20:57;;;;;;;0.00;0.00;;;;;;;19.98;82.16;100219.78;4885230;29;20028;-77
2023/09/27 09:23:47;;;;;;;0.00;0.00;;;;;;;20.33;81.87;100207.66;4868239;29;20392;-78
2023/09/27 09:26:14;;;;;;;0.00;0.00;;;;;;;20.89;81.27;100201.81;4859352;29;20577;-77
2023/09/27 09:28:56;;;;;;;0.00;0.00;;;;;;;21.94;77.38;100183.94;4874252;29;20033;-77
2023/09/27 09:31:23;;;;;;;0.00;0.00;;;;;;;22.46;72.85;100199.91;4869844;29;20131;-77
2023/09/27 09:34:12;;;;;;;0.00;0.00;;;;;;;22.62;71.32;100194.41;4878867;29;20032;-76
2023/09/27 09:36:38;;;;;;;0.00;0.00;;;;;;;22.60;71.36;100198.72;4852309;29;20068;-76
2023/09/27 09:39:13;;;;;;;0.00;0.00;;;;;;;22.24;72.44;100208.72;4869558;29;20460;-76
2023/09/27 09:41:47;;;;;;;0.00;0.00;;;;;;;21.62;74.58;100192.06;4882905;29;21489;-77
2023/09/27 09:44:31;;;;;;;0.00;0.00;;;;;;;21.17;76.24;100195.66;4870230;29;20032;-78
2023/09/27 09:47:10;;;;;;;0.00;0.00;;;;;;;20.94;77.86;100196.06;4849861;29;20085;-77
2023/09/27 09:49:35;;;;;;;0.00;0.00;;;;;;;20.92;77.72;100184.47;4890483;29;20613;-78
2023/09/27 09:52:03;;;;;;;0.00;0.00;;;;;;;20.52;78.44;100165.53;4884923;29;20052;-77
2023/09/27 09:54:37;;;;;;;0.00;0.00;;;;;;;20.28;79.80;100183.69;4890511;29;20032;-77
2023/09/27 09:57:07;;;;;;;0.00;0.00;;;;;;;20.10;80.68;100179.38;4888141;29;20063;-77
2023/09/27 10:00:13;;;;;;;0.00;0.00;;;;;;;20.02;81.14;100175.53;4859123;29;20041;-77
2023/09/27 10:03:01;;;;;;;0.00;0.00;;;;;;;20.17;81.22;100188.00;4836195;29;20040;-77
2023/09/27 10:05:34;;;;;;;0.00;0.00;;;;;;;20.49;80.65;100171.75;4872609;29;20047;-76
2023/09/27 10:08:01;;;;;;;0.00;0.00;;;;;;;20.90;79.38;100142.31;4893460;29;20017;-77
2023/09/27 10:10:28;;;;;;;0.00;0.00;;;;;;;21.16;78.38;100138.41;4873692;29;20037;-78
2023/09/27 10:12:56;;;;;;;0.00;0.00;;;;;;;21.20;77.58;100133.81;4859354;29;20127;-78
2023/09/27 10:15:27;;;;;;;0.00;0.00;;;;;;;21.40;77.13;100132.91;4864250;29;20028;-75
2023/09/27 10:17:56;;;;;;;0.00;0.00;;;;;;;21.32;76.57;100119.94;4870145;29;20084;-76
2023/09/27 10:20:22;;;;;;;0.00;0.00;;;;;;;21.15;75.99;100122.91;4876951;29;20787;-77
2023/09/27 10:22:50;;;;;;;0.00;0.00;;;;;;;20.89;77.01;100101.78;4887746;29;20047;-77
2023/09/27 10:25:30;;;;;;;0.00;0.00;;;;;;;21.11;76.89;100114.44;4873310;29;20054;-77
2023/09/27 10:28:01;;;;;;;0.00;0.00;;;;;;;21.44;76.57;100117.16;4871635;29;20035;-77
2023/09/27 10:30:44;;;;;;;0.00;0.00;;;;;;;23.46;71.42;100117.38;4897336;29;20123;-77
2023/09/27 10:33:15;;;;;;;0.00;0.00;;;;;;;25.30;65.72;100106.44;4890718;29;20139;-77
2023/09/27 10:36:07;;;;;;;0.00;0.00;;;;;;;26.55;58.20;100093.44;4888412;29;20021;-77
2023/09/27 10:38:42;;;;;;;0.00;0.00;;;;;;;26.48;57.36;100099.75;4871585;29;20057;-78
2023/09/27 10:41:38;;;;;;;0.00;0.00;;;;;;;25.95;57.78;100089.47;4885876;29;20056;-77
2023/09/27 10:44:04;;;;;;;0.00;0.00;;;;;;;24.97;58.86;100091.06;4891788;29;20087;-78
2023/09/27 10:46:45;;;;;;;0.00;0.00;;;;;;;23.88;61.05;100100.06;4872440;29;20052;-75
2023/09/27 10:49:11;;;;;;;0.00;0.00;;;;;;;23.13;62.82;100093.47;4890816;29;20032;-77
2023/09/27 10:51:37;;;;;;;0.00;0.00;;;;;;;22.80;64.53;100110.50;4856242;29;20036;-78
2023/09/27 10:54:09;;;;;;;0.00;0.00;;;;;;;22.66;63.30;100116.47;4869314;29;20033;-78
2023/09/27 10:56:41;;;;;;;0.00;0.00;;;;;;;22.42;63.34;100098.69;4863662;29;20021;-77
2023/09/27 10:59:07;;;;;;;0.00;0.00;;;;;;;22.27;63.78;100068.81;4873400;29;20036;-76
2023/09/27 11:01:35;;;;;;;0.00;0.00;;;;;;;22.25;64.86;100043.25;4877561;29;20056;-77
2023/09/27 11:04:02;;;;;;;0.00;0.00;;;;;;;22.21;63.90;100050.69;4856591;29;20032;-77
2023/09/27 11:06:29;;;;;;;0.00;0.00;;;;;;;21.97;65.18;100072.69;4884429;29;20765;-77
2023/09/27 11:09:13;;;;;;;0.00;0.00;;;;;;;21.40;67.53;100030.00;4859927;29;20029;-79
2023/09/27 11:11:43;;;;;;;0.00;0.00;;;;;;;21.07;67.84;100008.69;4855815;29;20032;-76
2023/09/27 11:14:09;;;;;;;0.00;0.00;;;;;;;20.90;68.94;100014.47;4869311;29;20184;-77
2023/09/27 11:16:35;;;;;;;0.00;0.00;;;;;;;20.69;69.80;100009.81;4861408;29;20527;-77
2023/09/27 11:19:02;;;;;;;0.00;0.00;;;;;;;20.49;70.09;100016.25;4886479;29;20087;-76
2023/09/27 11:21:28;;;;;;;0.00;0.00;;;;;;;20.30;71.10;100013.97;4861298;29;20032;-78
2023/09/27 11:24:07;;;;;;;0.00;0.00;;;;;;;20.11;71.57;99983.97;4868560;29;20073;-76
2023/09/27 11:26:33;;;;;;;0.00;0.00;;;;;;;20.14;71.98;99938.84;4890510;29;20016;-78